sensor_id;sensor_type;location;lat;lon;timestamp;P1;P2;P0
80628;PMS5003;69983;42.370;-71.210;2023-06-19T00:00:45;93;79;
80628;PMS5003;69983;42.370;-71.210;2023-06-19T00:02:45;67;61;
80628;PMS5003;69983;42.370;-71.210;2023-06-19T00:04:46;65;55;
80628;PMS5003;69983;42.370;-71.210;2023-06-19T00:06:46;56;46;
80628;PMS5003;69983;42.370;-71.210;2023-06-19T00:08:47;55;45;
80628;PMS5003;69983;42.370;-71.210;2023-06-19T00:10:47;49;39;
80628;PMS5003;69983;42.370;-71.210;2023-06-19T00:12:47;34;29;
80628;PMS5003;69983;42.370;-71.210;2023-06-19T00:14:48;30;28;
80628;PMS5003;69983;42.370;-71.210;2023-06-19T00:16:48;27;22;
80628;PMS5003;69983;42.370;-71.210;2023-06-19T00:18:49;30;22;
80628;PMS5003;69983;42.370;-71.210;2023-06-19T00:20:49;22;19;
80628;PMS5003;69983;42.370;-71.210;2023-06-19T00:22:49;19;15;
80628;PMS5003;69983;42.370;-71.210;2023-06-19T00:24:49;17;15;
80628;PMS5003;69983;42.370;-71.210;2023-06-19T00:26:50;22;17;
80628;PMS5003;69983;42.370;-71.210;2023-06-19T00:28:50;15;11;
80628;PMS5003;69983;42.370;-71.210;2023-06-19T00:30:50;17;14;
80628;PMS5003;69983;42.370;-71.210;2023-06-19T00:32:51;13;13;
80628;PMS5003;69983;42.370;-71.210;2023-06-19T00:34:52;15;12;
80628;PMS5003;69983;42.370;-71.210;2023-06-19T00:36:52;22;13;
80628;PMS5003;69983;42.370;-71.210;2023-06-19T00:38:52;14;13;
80628;PMS5003;69983;42.370;-71.210;2023-06-19T00:40:52;12;9;
80628;PMS5003;69983;42.370;-71.210;2023-06-19T00:42:53;232;197;
80628;PMS5003;69983;42.370;-71.210;2023-06-19T00:44:53;153;111;
80628;PMS5003;69983;42.370;-71.210;2023-06-19T00:46:55;76;67;
80628;PMS5003;69983;42.370;-71.210;2023-06-19T00:48:54;62;48;
80628;PMS5003;69983;42.370;-71.210;2023-06-19T00:50:56;40;32;
80628;PMS5003;69983;42.370;-71.210;2023-06-19T00:52:56;29;28;
80628;PMS5003;69983;42.370;-71.210;2023-06-19T00:54:57;24;22;
80628;PMS5003;69983;42.370;-71.210;2023-06-19T00:56:57;19;17;
80628;PMS5003;69983;42.370;-71.210;2023-06-19T00:58:58;17;14;
80628;PMS5003;69983;42.370;-71.210;2023-06-19T01:00:59;14;14;
80628;PMS5003;69983;42.370;-71.210;2023-06-19T01:02:59;17;14;
80628;PMS5003;69983;42.370;-71.210;2023-06-19T01:05:00;16;13;
80628;PMS5003;69983;42.370;-71.210;2023-06-19T01:07:02;16;12;
80628;PMS5003;69983;42.370;-71.210;2023-06-19T01:09:01;15;11;
80628;PMS5003;69983;42.370;-71.210;2023-06-19T01:11:01;831;619;
80628;PMS5003;69983;42.370;-71.210;2023-06-19T01:13:05;188;147;
80628;PMS5003;69983;42.370;-71.210;2023-06-19T01:15:03;109;95;
80628;PMS5003;69983;42.370;-71.210;2023-06-19T01:17:03;420;320;
80628;PMS5003;69983;42.370;-71.210;2023-06-19T01:19:03;327;257;
80628;PMS5003;69983;42.370;-71.210;2023-06-19T01:21:11;794;575;
80628;PMS5003;69983;42.370;-71.210;2023-06-19T01:23:07;360;262;
80628;PMS5003;69983;42.370;-71.210;2023-06-19T01:25:04;267;191;
80628;PMS5003;69983;42.370;-71.210;2023-06-19T01:27:04;173;135;
80628;PMS5003;69983;42.370;-71.210;2023-06-19T01:29:04;135;107;
80628;PMS5003;69983;42.370;-71.210;2023-06-19T01:31:06;105;79;
80628;PMS5003;69983;42.370;-71.210;2023-06-19T01:33:07;232;195;
80628;PMS5003;69983;42.370;-71.210;2023-06-19T01:35:06;165;135;
80628;PMS5003;69983;42.370;-71.210;2023-06-19T01:37:06;131;104;
80628;PMS5003;69983;42.370;-71.210;2023-06-19T01:39:06;112;95;
80628;PMS5003;69983;42.370;-71.210;2023-06-19T01:41:07;91;66;
80628;PMS5003;69983;42.370;-71.210;2023-06-19T01:43:08;71;58;
80628;PMS5003;69983;42.370;-71.210;2023-06-19T01:45:08;56;48;
80628;PMS5003;69983;42.370;-71.210;2023-06-19T01:47:09;252;206;
80628;PMS5003;69983;42.370;-71.210;2023-06-19T01:49:08;269;190;
80628;PMS5003;69983;42.370;-71.210;2023-06-19T01:51:09;195;159;
80628;PMS5003;69983;42.370;-71.210;2023-06-19T01:53:09;287;188;
80628;PMS5003;69983;42.370;-71.210;2023-06-19T01:55:10;332;191;
80628;PMS5003;69983;42.370;-71.210;2023-06-19T01:57:10;228;146;
80628;PMS5003;69983;42.370;-71.210;2023-06-19T01:59:10;181;113;
80628;PMS5003;69983;42.370;-71.210;2023-06-19T02:01:11;130;94;
80628;PMS5003;69983;42.370;-71.210;2023-06-19T02:03:11;598;492;
80628;PMS5003;69983;42.370;-71.210;2023-06-19T02:05:11;272;220;
80628;PMS5003;69983;42.370;-71.210;2023-06-19T02:07:12;348;242;
80628;PMS5003;69983;42.370;-71.210;2023-06-19T02:09:12;238;169;
80628;PMS5003;69983;42.370;-71.210;2023-06-19T02:11:12;256;161;
80628;PMS5003;69983;42.370;-71.210;2023-06-19T02:13:12;121;91;
80628;PMS5003;69983;42.370;-71.210;2023-06-19T02:15:13;130;90;
80628;PMS5003;69983;42.370;-71.210;2023-06-19T02:17:14;68;53;
80628;PMS5003;69983;42.370;-71.210;2023-06-19T02:19:14;185;152;
80628;PMS5003;69983;42.370;-71.210;2023-06-19T02:21:15;122;104;
80628;PMS5003;69983;42.370;-71.210;2023-06-19T02:23:15;136;110;
80628;PMS5003;69983;42.370;-71.210;2023-06-19T02:25:16;155;120;
80628;PMS5003;69983;42.370;-71.210;2023-06-19T02:27:16;145;97;
80628;PMS5003;69983;42.370;-71.210;2023-06-19T02:29:16;152;92;
80628;PMS5003;69983;42.370;-71.210;2023-06-19T02:31:17;96;68;
80628;PMS5003;69983;42.370;-71.210;2023-06-19T02:33:17;203;151;
80628;PMS5003;69983;42.370;-71.210;2023-06-19T02:35:17;169;121;
80628;PMS5003;69983;42.370;-71.210;2023-06-19T02:37:17;243;178;
80628;PMS5003;69983;42.370;-71.210;2023-06-19T02:39:17;120;94;
80628;PMS5003;69983;42.370;-71.210;2023-06-19T02:41:18;128;85;
80628;PMS5003;69983;42.370;-71.210;2023-06-19T02:43:18;78;59;
80628;PMS5003;69983;42.370;-71.210;2023-06-19T02:45:18;225;199;
80628;PMS5003;69983;42.370;-71.210;2023-06-19T02:47:19;253;190;
80628;PMS5003;69983;42.370;-71.210;2023-06-19T02:49:19;223;184;
80628;PMS5003;69983;42.370;-71.210;2023-06-19T02:51:20;187;136;
80628;PMS5003;69983;42.370;-71.210;2023-06-19T02:53:19;205;135;
80628;PMS5003;69983;42.370;-71.210;2023-06-19T02:55:20;173;116;
80628;PMS5003;69983;42.370;-71.210;2023-06-19T02:57:20;176;122;
80628;PMS5003;69983;42.370;-71.210;2023-06-19T02:59:20;219;160;
80628;PMS5003;69983;42.370;-71.210;2023-06-19T03:01:21;270;164;
80628;PMS5003;69983;42.370;-71.210;2023-06-19T03:03:21;237;164;
80628;PMS5003;69983;42.370;-71.210;2023-06-19T03:05:22;232;142;
80628;PMS5003;69983;42.370;-71.210;2023-06-19T03:07:22;181;115;
80628;PMS5003;69983;42.370;-71.210;2023-06-19T03:09:23;157;90;
80628;PMS5003;69983;42.370;-71.210;2023-06-19T03:11:24;118;68;
80628;PMS5003;69983;42.370;-71.210;2023-06-19T03:13:24;117;75;
80628;PMS5003;69983;42.370;-71.210;2023-06-19T03:15:25;198;132;
80628;PMS5003;69983;42.370;-71.210;2023-06-19T03:17:25;170;116;
80628;PMS5003;69983;42.370;-71.210;2023-06-19T03:19:25;144;98;
80628;PMS5003;69983;42.370;-71.210;2023-06-19T03:21:26;211;140;
80628;PMS5003;69983;42.370;-71.210;2023-06-19T03:23:26;185;106;
80628;PMS5003;69983;42.370;-71.210;2023-06-19T03:25:26;155;87;
80628;PMS5003;69983;42.370;-71.210;2023-06-19T03:27:27;85;50;
80628;PMS5003;69983;42.370;-71.210;2023-06-19T03:29:28;111;65;
80628;PMS5003;69983;42.370;-71.210;2023-06-19T03:31:29;77;51;
80628;PMS5003;69983;42.370;-71.210;2023-06-19T03:33:29;53;37;
80628;PMS5003;69983;42.370;-71.210;2023-06-19T03:35:30;37;24;
80628;PMS5003;69983;42.370;-71.210;2023-06-19T03:37:30;40;19;
80628;PMS5003;69983;42.370;-71.210;2023-06-19T03:39:30;19;16;
80628;PMS5003;69983;42.370;-71.210;2023-06-19T03:41:31;21;13;
80628;PMS5003;69983;42.370;-71.210;2023-06-19T03:43:32;16;15;
80628;PMS5003;69983;42.370;-71.210;2023-06-19T03:45:32;14;8;
80628;PMS5003;69983;42.370;-71.210;2023-06-19T03:47:32;11;8;
80628;PMS5003;69983;42.370;-71.210;2023-06-19T03:49:33;121;105;
80628;PMS5003;69983;42.370;-71.210;2023-06-19T03:51:33;99;88;
80628;PMS5003;69983;42.370;-71.210;2023-06-19T03:53:34;441;366;
80628;PMS5003;69983;42.370;-71.210;2023-06-19T03:55:35;411;344;
80628;PMS5003;69983;42.370;-71.210;2023-06-19T03:57:35;965;734;
80628;PMS5003;69983;42.370;-71.210;2023-06-19T03:59:35;483;383;
80628;PMS5003;69983;42.370;-71.210;2023-06-19T04:01:36;618;451;
80628;PMS5003;69983;42.370;-71.210;2023-06-19T04:03:37;456;357;
80628;PMS5003;69983;42.370;-71.210;2023-06-19T04:05:37;326;267;
80628;PMS5003;69983;42.370;-71.210;2023-06-19T04:07:37;226;190;
80628;PMS5003;69983;42.370;-71.210;2023-06-19T04:09:38;176;137;
80628;PMS5003;69983;42.370;-71.210;2023-06-19T04:11:38;141;114;
80628;PMS5003;69983;42.370;-71.210;2023-06-19T04:13:40;100;84;
80628;PMS5003;69983;42.370;-71.210;2023-06-19T04:15:40;83;70;
80628;PMS5003;69983;42.370;-71.210;2023-06-19T04:17:41;66;55;
80628;PMS5003;69983;42.370;-71.210;2023-06-19T04:19:41;41;36;
80628;PMS5003;69983;42.370;-71.210;2023-06-19T04:21:41;41;35;
80628;PMS5003;69983;42.370;-71.210;2023-06-19T04:23:42;33;29;
80628;PMS5003;69983;42.370;-71.210;2023-06-19T04:25:42;29;26;
80628;PMS5003;69983;42.370;-71.210;2023-06-19T04:27:44;27;22;
80628;PMS5003;69983;42.370;-71.210;2023-06-19T04:29:44;18;16;
80628;PMS5003;69983;42.370;-71.210;2023-06-19T04:31:44;16;12;
80628;PMS5003;69983;42.370;-71.210;2023-06-19T04:33:45;14;13;
80628;PMS5003;69983;42.370;-71.210;2023-06-19T04:35:45;13;9;
80628;PMS5003;69983;42.370;-71.210;2023-06-19T04:37:45;16;10;
80628;PMS5003;69983;42.370;-71.210;2023-06-19T04:39:45;15;9;
80628;PMS5003;69983;42.370;-71.210;2023-06-19T04:41:46;220;175;
80628;PMS5003;69983;42.370;-71.210;2023-06-19T04:43:46;517;397;
80628;PMS5003;69983;42.370;-71.210;2023-06-19T04:45:47;517;377;
80628;PMS5003;69983;42.370;-71.210;2023-06-19T04:47:47;344;271;
80628;PMS5003;69983;42.370;-71.210;2023-06-19T04:49:48;247;197;
80628;PMS5003;69983;42.370;-71.210;2023-06-19T04:51:48;190;151;
80628;PMS5003;69983;42.370;-71.210;2023-06-19T04:53:48;311;220;
80628;PMS5003;69983;42.370;-71.210;2023-06-19T04:55:49;184;135;
80628;PMS5003;69983;42.370;-71.210;2023-06-19T04:57:50;142;111;
80628;PMS5003;69983;42.370;-71.210;2023-06-19T04:59:50;111;81;
80628;PMS5003;69983;42.370;-71.210;2023-06-19T05:01:51;78;65;
80628;PMS5003;69983;42.370;-71.210;2023-06-19T05:03:51;70;55;
80628;PMS5003;69983;42.370;-71.210;2023-06-19T05:05:51;51;44;
80628;PMS5003;69983;42.370;-71.210;2023-06-19T05:07:52;40;33;
80628;PMS5003;69983;42.370;-71.210;2023-06-19T05:09:52;34;25;
80628;PMS5003;69983;42.370;-71.210;2023-06-19T05:11:52;29;27;
80628;PMS5003;69983;42.370;-71.210;2023-06-19T05:13:53;25;20;
80628;PMS5003;69983;42.370;-71.210;2023-06-19T05:15:53;523;380;
80628;PMS5003;69983;42.370;-71.210;2023-06-19T05:17:54;300;243;
80628;PMS5003;69983;42.370;-71.210;2023-06-19T05:19:54;174;141;
80628;PMS5003;69983;42.370;-71.210;2023-06-19T05:21:54;149;105;
80628;PMS5003;69983;42.370;-71.210;2023-06-19T05:23:55;105;80;
80628;PMS5003;69983;42.370;-71.210;2023-06-19T05:25:55;77;58;
80628;PMS5003;69983;42.370;-71.210;2023-06-19T05:27:55;54;47;
80628;PMS5003;69983;42.370;-71.210;2023-06-19T05:29:56;56;38;
80628;PMS5003;69983;42.370;-71.210;2023-06-19T05:31:56;32;30;
80628;PMS5003;69983;42.370;-71.210;2023-06-19T05:33:56;34;23;
80628;PMS5003;69983;42.370;-71.210;2023-06-19T05:35:57;29;19;
80628;PMS5003;69983;42.370;-71.210;2023-06-19T05:37:58;21;18;
80628;PMS5003;69983;42.370;-71.210;2023-06-19T05:39:58;15;12;
80628;PMS5003;69983;42.370;-71.210;2023-06-19T05:41:59;13;11;
80628;PMS5003;69983;42.370;-71.210;2023-06-19T05:43:59;13;8;
80628;PMS5003;69983;42.370;-71.210;2023-06-19T05:45:59;613;449;
80628;PMS5003;69983;42.370;-71.210;2023-06-19T05:47:59;333;232;
80628;PMS5003;69983;42.370;-71.210;2023-06-19T05:50:00;374;282;
80628;PMS5003;69983;42.370;-71.210;2023-06-19T05:52:01;516;371;
80628;PMS5003;69983;42.370;-71.210;2023-06-19T05:54:01;414;314;
80628;PMS5003;69983;42.370;-71.210;2023-06-19T05:56:01;291;213;
80628;PMS5003;69983;42.370;-71.210;2023-06-19T05:58:02;223;153;
80628;PMS5003;69983;42.370;-71.210;2023-06-19T06:00:03;147;122;
80628;PMS5003;69983;42.370;-71.210;2023-06-19T06:02:03;114;94;
80628;PMS5003;69983;42.370;-71.210;2023-06-19T06:04:04;91;72;
80628;PMS5003;69983;42.370;-71.210;2023-06-19T06:06:04;83;61;
80628;PMS5003;69983;42.370;-71.210;2023-06-19T06:08:04;57;44;
80628;PMS5003;69983;42.370;-71.210;2023-06-19T06:10:05;40;37;
80628;PMS5003;69983;42.370;-71.210;2023-06-19T06:12:06;36;32;
80628;PMS5003;69983;42.370;-71.210;2023-06-19T06:14:06;36;27;
80628;PMS5003;69983;42.370;-71.210;2023-06-19T06:16:06;23;18;
80628;PMS5003;69983;42.370;-71.210;2023-06-19T06:18:07;16;14;
80628;PMS5003;69983;42.370;-71.210;2023-06-19T06:20:07;17;14;
80628;PMS5003;69983;42.370;-71.210;2023-06-19T06:22:08;18;12;
80628;PMS5003;69983;42.370;-71.210;2023-06-19T06:24:08;11;8;
80628;PMS5003;69983;42.370;-71.210;2023-06-19T06:26:08;10;8;
80628;PMS5003;69983;42.370;-71.210;2023-06-19T06:28:09;10;8;
80628;PMS5003;69983;42.370;-71.210;2023-06-19T06:30:09;5;5;
80628;PMS5003;69983;42.370;-71.210;2023-06-19T06:32:09;3;3;
80628;PMS5003;69983;42.370;-71.210;2023-06-19T06:34:09;6;5;
80628;PMS5003;69983;42.370;-71.210;2023-06-19T06:36:09;5;5;
80628;PMS5003;69983;42.370;-71.210;2023-06-19T06:38:09;2;2;
80628;PMS5003;69983;42.370;-71.210;2023-06-19T06:40:10;7;1;
80628;PMS5003;69983;42.370;-71.210;2023-06-19T06:42:10;3;3;
80628;PMS5003;69983;42.370;-71.210;2023-06-19T06:44:10;2;2;
80628;PMS5003;69983;42.370;-71.210;2023-06-19T06:46:10;2;2;
80628;PMS5003;69983;42.370;-71.210;2023-06-19T06:48:10;1;1;
80628;PMS5003;69983;42.370;-71.210;2023-06-19T06:50:10;5;3;
80628;PMS5003;69983;42.370;-71.210;2023-06-19T06:52:11;2;2;
80628;PMS5003;69983;42.370;-71.210;2023-06-19T06:54:11;176;162;
80628;PMS5003;69983;42.370;-71.210;2023-06-19T06:56:11;246;211;
80628;PMS5003;69983;42.370;-71.210;2023-06-19T06:58:13;216;183;
80628;PMS5003;69983;42.370;-71.210;2023-06-19T07:00:13;178;148;
80628;PMS5003;69983;42.370;-71.210;2023-06-19T07:02:14;212;175;
80628;PMS5003;69983;42.370;-71.210;2023-06-19T07:04:14;246;187;
80628;PMS5003;69983;42.370;-71.210;2023-06-19T07:06:15;315;233;
80628;PMS5003;69983;42.370;-71.210;2023-06-19T07:08:15;246;180;
80628;PMS5003;69983;42.370;-71.210;2023-06-19T07:10:15;228;168;
80628;PMS5003;69983;42.370;-71.210;2023-06-19T07:12:16;237;171;
80628;PMS5003;69983;42.370;-71.210;2023-06-19T07:14:16;184;126;
80628;PMS5003;69983;42.370;-71.210;2023-06-19T07:16:16;160;116;
80628;PMS5003;69983;42.370;-71.210;2023-06-19T07:18:17;245;198;
80628;PMS5003;69983;42.370;-71.210;2023-06-19T07:20:17;220;159;
80628;PMS5003;69983;42.370;-71.210;2023-06-19T07:22:18;218;153;
80628;PMS5003;69983;42.370;-71.210;2023-06-19T07:24:19;190;142;
80628;PMS5003;69983;42.370;-71.210;2023-06-19T07:26:19;198;137;
80628;PMS5003;69983;42.370;-71.210;2023-06-19T07:28:19;181;117;
80628;PMS5003;69983;42.370;-71.210;2023-06-19T07:30:19;150;101;
80628;PMS5003;69983;42.370;-71.210;2023-06-19T07:32:20;117;72;
80628;PMS5003;69983;42.370;-71.210;2023-06-19T07:34:21;86;66;
80628;PMS5003;69983;42.370;-71.210;2023-06-19T07:36:21;164;133;
80628;PMS5003;69983;42.370;-71.210;2023-06-19T07:38:22;292;262;
80628;PMS5003;69983;42.370;-71.210;2023-06-19T07:40:22;198;167;
80628;PMS5003;69983;42.370;-71.210;2023-06-19T07:42:23;176;143;
80628;PMS5003;69983;42.370;-71.210;2023-06-19T07:44:23;124;108;
80628;PMS5003;69983;42.370;-71.210;2023-06-19T07:46:24;113;90;
80628;PMS5003;69983;42.370;-71.210;2023-06-19T07:48:24;213;170;
80628;PMS5003;69983;42.370;-71.210;2023-06-19T07:50:25;174;137;
80628;PMS5003;69983;42.370;-71.210;2023-06-19T07:52:25;146;111;
80628;PMS5003;69983;42.370;-71.210;2023-06-19T07:54:25;112;88;
80628;PMS5003;69983;42.370;-71.210;2023-06-19T07:56:26;108;86;
80628;PMS5003;69983;42.370;-71.210;2023-06-19T07:58:26;99;73;
80628;PMS5003;69983;42.370;-71.210;2023-06-19T08:00:26;83;69;
80628;PMS5003;69983;42.370;-71.210;2023-06-19T08:02:27;67;55;
80628;PMS5003;69983;42.370;-71.210;2023-06-19T08:04:27;66;53;
80628;PMS5003;69983;42.370;-71.210;2023-06-19T08:06:27;49;45;
80628;PMS5003;69983;42.370;-71.210;2023-06-19T08:08:27;44;40;
80628;PMS5003;69983;42.370;-71.210;2023-06-19T08:10:28;44;37;
80628;PMS5003;69983;42.370;-71.210;2023-06-19T08:12:29;44;32;
80628;PMS5003;69983;42.370;-71.210;2023-06-19T08:14:29;36;27;
80628;PMS5003;69983;42.370;-71.210;2023-06-19T08:16:29;26;25;
80628;PMS5003;69983;42.370;-71.210;2023-06-19T08:18:30;26;17;
80628;PMS5003;69983;42.370;-71.210;2023-06-19T08:20:30;25;23;
80628;PMS5003;69983;42.370;-71.210;2023-06-19T08:22:30;20;13;
80628;PMS5003;69983;42.370;-71.210;2023-06-19T08:24:31;20;15;
80628;PMS5003;69983;42.370;-71.210;2023-06-19T08:26:32;18;14;
80628;PMS5003;69983;42.370;-71.210;2023-06-19T08:28:32;16;14;
80628;PMS5003;69983;42.370;-71.210;2023-06-19T08:30:33;18;13;
80628;PMS5003;69983;42.370;-71.210;2023-06-19T08:32:33;11;6;
80628;PMS5003;69983;42.370;-71.210;2023-06-19T08:34:33;10;9;
80628;PMS5003;69983;42.370;-71.210;2023-06-19T08:36:33;13;10;
80628;PMS5003;69983;42.370;-71.210;2023-06-19T08:38:33;10;8;
80628;PMS5003;69983;42.370;-71.210;2023-06-19T08:40:33;11;8;
80628;PMS5003;69983;42.370;-71.210;2023-06-19T08:42:34;8;7;
80628;PMS5003;69983;42.370;-71.210;2023-06-19T08:44:34;10;7;
80628;PMS5003;69983;42.370;-71.210;2023-06-19T08:46:34;6;4;
80628;PMS5003;69983;42.370;-71.210;2023-06-19T08:48:34;6;5;
80628;PMS5003;69983;42.370;-71.210;2023-06-19T08:50:34;6;4;
80628;PMS5003;69983;42.370;-71.210;2023-06-19T08:52:34;7;6;
80628;PMS5003;69983;42.370;-71.210;2023-06-19T08:54:34;4;4;
80628;PMS5003;69983;42.370;-71.210;2023-06-19T08:56:34;5;4;
80628;PMS5003;69983;42.370;-71.210;2023-06-19T08:58:34;2;2;
80628;PMS5003;69983;42.370;-71.210;2023-06-19T09:00:34;4;3;
80628;PMS5003;69983;42.370;-71.210;2023-06-19T09:02:38;5;2;
80628;PMS5003;69983;42.370;-71.210;2023-06-19T09:04:35;2;0;
80628;PMS5003;69983;42.370;-71.210;2023-06-19T09:06:35;1;1;
80628;PMS5003;69983;42.370;-71.210;2023-06-19T09:08:35;1;1;
80628;PMS5003;69983;42.370;-71.210;2023-06-19T09:10:35;2;2;
80628;PMS5003;69983;42.370;-71.210;2023-06-19T09:12:35;2;1;
80628;PMS5003;69983;42.370;-71.210;2023-06-19T09:14:36;3;1;
80628;PMS5003;69983;42.370;-71.210;2023-06-19T09:16:37;1;1;
80628;PMS5003;69983;42.370;-71.210;2023-06-19T09:18:43;0;0;
80628;PMS5003;69983;42.370;-71.210;2023-06-19T09:20:37;0;0;
80628;PMS5003;69983;42.370;-71.210;2023-06-19T09:22:36;0;0;
80628;PMS5003;69983;42.370;-71.210;2023-06-19T09:24:36;0;0;
80628;PMS5003;69983;42.370;-71.210;2023-06-19T09:26:36;0;0;
80628;PMS5003;69983;42.370;-71.210;2023-06-19T09:28:39;0;0;
80628;PMS5003;69983;42.370;-71.210;2023-06-19T09:30:36;0;0;
80628;PMS5003;69983;42.370;-71.210;2023-06-19T09:32:36;0;0;
80628;PMS5003;69983;42.370;-71.210;2023-06-19T09:34:36;0;0;
80628;PMS5003;69983;42.370;-71.210;2023-06-19T09:36:36;0;0;
80628;PMS5003;69983;42.370;-71.210;2023-06-19T09:38:37;0;0;
80628;PMS5003;69983;42.370;-71.210;2023-06-19T09:40:37;0;0;
80628;PMS5003;69983;42.370;-71.210;2023-06-19T09:42:37;0;0;
80628;PMS5003;69983;42.370;-71.210;2023-06-19T09:44:39;0;0;
80628;PMS5003;69983;42.370;-71.210;2023-06-19T09:46:37;0;0;
80628;PMS5003;69983;42.370;-71.210;2023-06-19T09:48:40;0;0;
80628;PMS5003;69983;42.370;-71.210;2023-06-19T09:50:37;0;0;
80628;PMS5003;69983;42.370;-71.210;2023-06-19T09:52:37;0;0;
80628;PMS5003;69983;42.370;-71.210;2023-06-19T09:54:37;0;0;
80628;PMS5003;69983;42.370;-71.210;2023-06-19T09:56:37;0;0;
80628;PMS5003;69983;42.370;-71.210;2023-06-19T09:58:37;2;0;
80628;PMS5003;69983;42.370;-71.210;2023-06-19T10:00:38;0;0;
80628;PMS5003;69983;42.370;-71.210;2023-06-19T10:02:39;0;0;
80628;PMS5003;69983;42.370;-71.210;2023-06-19T10:04:46;0;0;
80628;PMS5003;69983;42.370;-71.210;2023-06-19T10:06:45;0;0;
80628;PMS5003;69983;42.370;-71.210;2023-06-19T10:08:39;0;0;
80628;PMS5003;69983;42.370;-71.210;2023-06-19T10:10:46;0;0;
80628;PMS5003;69983;42.370;-71.210;2023-06-19T10:12:39;0;0;
80628;PMS5003;69983;42.370;-71.210;2023-06-19T10:14:45;0;0;
80628;PMS5003;69983;42.370;-71.210;2023-06-19T10:16:40;0;0;
80628;PMS5003;69983;42.370;-71.210;2023-06-19T10:18:44;0;0;
80628;PMS5003;69983;42.370;-71.210;2023-06-19T10:20:39;0;0;
80628;PMS5003;69983;42.370;-71.210;2023-06-19T10:22:39;0;0;
80628;PMS5003;69983;42.370;-71.210;2023-06-19T10:24:39;0;0;
80628;PMS5003;69983;42.370;-71.210;2023-06-19T10:26:39;0;0;
80628;PMS5003;69983;42.370;-71.210;2023-06-19T10:28:45;0;0;
80628;PMS5003;69983;42.370;-71.210;2023-06-19T10:30:39;0;0;
80628;PMS5003;69983;42.370;-71.210;2023-06-19T10:32:39;0;0;
80628;PMS5003;69983;42.370;-71.210;2023-06-19T10:34:40;1;0;
80628;PMS5003;69983;42.370;-71.210;2023-06-19T10:36:40;0;0;
80628;PMS5003;69983;42.370;-71.210;2023-06-19T10:38:40;0;0;
80628;PMS5003;69983;42.370;-71.210;2023-06-19T10:40:40;0;0;
80628;PMS5003;69983;42.370;-71.210;2023-06-19T10:42:40;0;0;
80628;PMS5003;69983;42.370;-71.210;2023-06-19T10:44:40;0;0;
80628;PMS5003;69983;42.370;-71.210;2023-06-19T10:46:40;0;0;
80628;PMS5003;69983;42.370;-71.210;2023-06-19T10:48:40;0;0;
80628;PMS5003;69983;42.370;-71.210;2023-06-19T10:50:41;0;0;
80628;PMS5003;69983;42.370;-71.210;2023-06-19T10:52:41;0;0;
80628;PMS5003;69983;42.370;-71.210;2023-06-19T10:54:41;0;0;
80628;PMS5003;69983;42.370;-71.210;2023-06-19T10:56:41;0;0;
80628;PMS5003;69983;42.370;-71.210;2023-06-19T10:58:41;0;0;
80628;PMS5003;69983;42.370;-71.210;2023-06-19T11:00:41;0;0;
80628;PMS5003;69983;42.370;-71.210;2023-06-19T11:02:41;0;0;
80628;PMS5003;69983;42.370;-71.210;2023-06-19T11:04:41;0;0;
80628;PMS5003;69983;42.370;-71.210;2023-06-19T11:06:42;0;0;
80628;PMS5003;69983;42.370;-71.210;2023-06-19T11:08:41;0;0;
80628;PMS5003;69983;42.370;-71.210;2023-06-19T11:10:41;0;0;
80628;PMS5003;69983;42.370;-71.210;2023-06-19T11:12:42;0;0;
80628;PMS5003;69983;42.370;-71.210;2023-06-19T11:14:42;0;0;
80628;PMS5003;69983;42.370;-71.210;2023-06-19T11:16:42;0;0;
80628;PMS5003;69983;42.370;-71.210;2023-06-19T11:18:42;0;0;
80628;PMS5003;69983;42.370;-71.210;2023-06-19T11:20:43;0;0;
80628;PMS5003;69983;42.370;-71.210;2023-06-19T11:22:42;0;0;
80628;PMS5003;69983;42.370;-71.210;2023-06-19T11:24:44;0;0;
80628;PMS5003;69983;42.370;-71.210;2023-06-19T11:26:43;0;0;
80628;PMS5003;69983;42.370;-71.210;2023-06-19T11:28:47;0;0;
80628;PMS5003;69983;42.370;-71.210;2023-06-19T11:30:43;0;0;
80628;PMS5003;69983;42.370;-71.210;2023-06-19T11:32:42;0;0;
80628;PMS5003;69983;42.370;-71.210;2023-06-19T11:34:43;0;0;
80628;PMS5003;69983;42.370;-71.210;2023-06-19T11:36:43;0;0;
80628;PMS5003;69983;42.370;-71.210;2023-06-19T11:38:43;0;0;
80628;PMS5003;69983;42.370;-71.210;2023-06-19T11:40:43;0;0;
80628;PMS5003;69983;42.370;-71.210;2023-06-19T11:42:45;0;0;
80628;PMS5003;69983;42.370;-71.210;2023-06-19T11:44:53;0;0;
80628;PMS5003;69983;42.370;-71.210;2023-06-19T11:46:43;0;0;
80628;PMS5003;69983;42.370;-71.210;2023-06-19T11:48:43;0;0;
80628;PMS5003;69983;42.370;-71.210;2023-06-19T11:50:43;0;0;
80628;PMS5003;69983;42.370;-71.210;2023-06-19T11:52:44;0;0;
80628;PMS5003;69983;42.370;-71.210;2023-06-19T11:54:44;0;0;
80628;PMS5003;69983;42.370;-71.210;2023-06-19T11:56:44;0;0;
80628;PMS5003;69983;42.370;-71.210;2023-06-19T11:58:44;0;0;
80628;PMS5003;69983;42.370;-71.210;2023-06-19T12:00:44;0;0;
80628;PMS5003;69983;42.370;-71.210;2023-06-19T12:02:44;0;0;
80628;PMS5003;69983;42.370;-71.210;2023-06-19T12:04:44;0;0;
80628;PMS5003;69983;42.370;-71.210;2023-06-19T12:06:44;0;0;
80628;PMS5003;69983;42.370;-71.210;2023-06-19T12:08:45;0;0;
80628;PMS5003;69983;42.370;-71.210;2023-06-19T12:10:45;0;0;
80628;PMS5003;69983;42.370;-71.210;2023-06-19T12:12:45;0;0;
80628;PMS5003;69983;42.370;-71.210;2023-06-19T12:14:45;0;0;
80628;PMS5003;69983;42.370;-71.210;2023-06-19T12:16:45;0;0;
80628;PMS5003;69983;42.370;-71.210;2023-06-19T12:18:45;0;0;
80628;PMS5003;69983;42.370;-71.210;2023-06-19T12:20:45;0;0;
80628;PMS5003;69983;42.370;-71.210;2023-06-19T12:22:45;0;0;
80628;PMS5003;69983;42.370;-71.210;2023-06-19T12:24:46;0;0;
80628;PMS5003;69983;42.370;-71.210;2023-06-19T12:26:45;0;0;
80628;PMS5003;69983;42.370;-71.210;2023-06-19T12:28:45;0;0;
80628;PMS5003;69983;42.370;-71.210;2023-06-19T12:30:46;0;0;
80628;PMS5003;69983;42.370;-71.210;2023-06-19T12:32:46;0;0;
80628;PMS5003;69983;42.370;-71.210;2023-06-19T12:34:46;0;0;
80628;PMS5003;69983;42.370;-71.210;2023-06-19T12:36:46;0;0;
80628;PMS5003;69983;42.370;-71.210;2023-06-19T12:38:46;0;0;
80628;PMS5003;69983;42.370;-71.210;2023-06-19T12:40:46;0;0;
80628;PMS5003;69983;42.370;-71.210;2023-06-19T12:42:46;0;0;
80628;PMS5003;69983;42.370;-71.210;2023-06-19T12:44:47;0;0;
80628;PMS5003;69983;42.370;-71.210;2023-06-19T12:46:46;0;0;
80628;PMS5003;69983;42.370;-71.210;2023-06-19T12:48:47;0;0;
80628;PMS5003;69983;42.370;-71.210;2023-06-19T12:50:47;0;0;
80628;PMS5003;69983;42.370;-71.210;2023-06-19T12:52:47;0;0;